sensor_id;sensor_type;location;lat;lon;timestamp;temperature;humidity
79760;DHT22;69248;42.138;24.742;2023-04-24T00:01:54;13.50;57.90
79760;DHT22;69248;42.138;24.742;2023-04-24T00:04:22;13.50;58.40
79760;DHT22;69248;42.138;24.742;2023-04-24T00:06:52;13.40;58.30
79760;DHT22;69248;42.138;24.742;2023-04-24T00:09:21;13.30;58.70
79760;DHT22;69248;42.138;24.742;2023-04-24T00:11:48;13.30;58.30
79760;DHT22;69248;42.138;24.742;2023-04-24T00:14:16;13.30;58.40
79760;DHT22;69248;42.138;24.742;2023-04-24T00:16:44;13.30;58.80
79760;DHT22;69248;42.138;24.742;2023-04-24T00:19:11;13.30;58.80
79760;DHT22;69248;42.138;24.742;2023-04-24T00:21:39;13.30;58.80
79760;DHT22;69248;42.138;24.742;2023-04-24T00:24:07;13.30;58.80
79760;DHT22;69248;42.138;24.742;2023-04-24T00:26:36;13.30;58.80
79760;DHT22;69248;42.138;24.742;2023-04-24T00:29:04;13.30;59.10
79760;DHT22;69248;42.138;24.742;2023-04-24T00:31:32;13.20;59.50
79760;DHT22;69248;42.138;24.742;2023-04-24T00:34:01;13.10;59.80
79760;DHT22;69248;42.138;24.742;2023-04-24T00:36:29;13.10;60.40
79760;DHT22;69248;42.138;24.742;2023-04-24T00:38:57;13.10;60.70
79760;DHT22;69248;42.138;24.742;2023-04-24T00:41:25;13.00;60.40
79760;DHT22;69248;42.138;24.742;2023-04-24T00:43:53;13.00;60.60
79760;DHT22;69248;42.138;24.742;2023-04-24T00:46:21;13.00;60.50
79760;DHT22;69248;42.138;24.742;2023-04-24T00:48:49;13.00;60.50
79760;DHT22;69248;42.138;24.742;2023-04-24T00:51:17;13.00;60.50
79760;DHT22;69248;42.138;24.742;2023-04-24T00:53:45;13.00;60.40
79760;DHT22;69248;42.138;24.742;2023-04-24T00:56:13;13.00;60.60
79760;DHT22;69248;42.138;24.742;2023-04-24T00:58:41;12.90;60.90
79760;DHT22;69248;42.138;24.742;2023-04-24T01:01:10;13.00;60.70
79760;DHT22;69248;42.138;24.742;2023-04-24T01:03:38;12.90;60.90
79760;DHT22;69248;42.138;24.742;2023-04-24T01:06:06;12.90;60.90
79760;DHT22;69248;42.138;24.742;2023-04-24T01:08:35;13.00;61.00
79760;DHT22;69248;42.138;24.742;2023-04-24T01:11:04;13.00;60.90
79760;DHT22;69248;42.138;24.742;2023-04-24T01:13:32;13.00;60.90
79760;DHT22;69248;42.138;24.742;2023-04-24T01:16:01;12.90;61.20
79760;DHT22;69248;42.138;24.742;2023-04-24T01:18:28;12.90;61.60
79760;DHT22;69248;42.138;24.742;2023-04-24T01:20:59;12.90;61.70
79760;DHT22;69248;42.138;24.742;2023-04-24T01:23:27;12.80;62.10
79760;DHT22;69248;42.138;24.742;2023-04-24T01:25:55;12.60;62.50
79760;DHT22;69248;42.138;24.742;2023-04-24T01:28:22;12.50;62.80
79760;DHT22;69248;42.138;24.742;2023-04-24T01:30:50;12.50;62.80
79760;DHT22;69248;42.138;24.742;2023-04-24T01:33:18;12.50;63.00
79760;DHT22;69248;42.138;24.742;2023-04-24T01:35:48;12.50;62.80
79760;DHT22;69248;42.138;24.742;2023-04-24T01:38:15;12.50;62.80
79760;DHT22;69248;42.138;24.742;2023-04-24T01:40:43;12.40;63.00
79760;DHT22;69248;42.138;24.742;2023-04-24T01:43:12;12.30;63.30
79760;DHT22;69248;42.138;24.742;2023-04-24T01:45:40;12.20;63.70
79760;DHT22;69248;42.138;24.742;2023-04-24T01:48:07;11.90;64.70
79760;DHT22;69248;42.138;24.742;2023-04-24T01:50:35;11.80;65.40
79760;DHT22;69248;42.138;24.742;2023-04-24T01:53:03;11.60;66.20
79760;DHT22;69248;42.138;24.742;2023-04-24T01:55:31;11.60;66.50
79760;DHT22;69248;42.138;24.742;2023-04-24T01:58:00;11.50;66.50
79760;DHT22;69248;42.138;24.742;2023-04-24T02:00:28;11.50;66.80
79760;DHT22;69248;42.138;24.742;2023-04-24T02:02:56;11.50;66.70
79760;DHT22;69248;42.138;24.742;2023-04-24T02:05:23;11.40;66.30
79760;DHT22;69248;42.138;24.742;2023-04-24T02:07:51;11.40;66.70
79760;DHT22;69248;42.138;24.742;2023-04-24T02:10:18;11.20;67.10
79760;DHT22;69248;42.138;24.742;2023-04-24T02:12:46;11.00;67.80
79760;DHT22;69248;42.138;24.742;2023-04-24T02:15:13;10.90;68.70
79760;DHT22;69248;42.138;24.742;2023-04-24T02:17:41;10.90;68.70
79760;DHT22;69248;42.138;24.742;2023-04-24T02:20:09;10.90;68.90
79760;DHT22;69248;42.138;24.742;2023-04-24T02:22:36;10.90;69.20
79760;DHT22;69248;42.138;24.742;2023-04-24T02:25:04;10.90;69.50
79760;DHT22;69248;42.138;24.742;2023-04-24T02:27:32;10.90;70.00
79760;DHT22;69248;42.138;24.742;2023-04-24T02:29:59;11.00;69.10
79760;DHT22;69248;42.138;24.742;2023-04-24T02:32:27;11.00;69.30
79760;DHT22;69248;42.138;24.742;2023-04-24T02:34:54;11.00;69.10
79760;DHT22;69248;42.138;24.742;2023-04-24T02:37:22;11.00;69.20
79760;DHT22;69248;42.138;24.742;2023-04-24T02:39:50;11.10;69.20
79760;DHT22;69248;42.138;24.742;2023-04-24T02:42:17;11.10;68.80
79760;DHT22;69248;42.138;24.742;2023-04-24T02:44:45;11.10;68.50
79760;DHT22;69248;42.138;24.742;2023-04-24T02:47:12;11.10;68.50
79760;DHT22;69248;42.138;24.742;2023-04-24T02:49:39;11.10;68.70
79760;DHT22;69248;42.138;24.742;2023-04-24T02:52:08;11.20;68.50
79760;DHT22;69248;42.138;24.742;2023-04-24T02:54:35;11.20;68.50
79760;DHT22;69248;42.138;24.742;2023-04-24T02:57:03;11.20;68.60
79760;DHT22;69248;42.138;24.742;2023-04-24T02:59:31;11.20;68.60
79760;DHT22;69248;42.138;24.742;2023-04-24T03:01:58;11.30;68.60
79760;DHT22;69248;42.138;24.742;2023-04-24T03:04:26;11.30;68.50
79760;DHT22;69248;42.138;24.742;2023-04-24T03:06:54;11.40;68.20
79760;DHT22;69248;42.138;24.742;2023-04-24T03:09:22;11.40;68.10
79760;DHT22;69248;42.138;24.742;2023-04-24T03:11:49;11.40;68.00
79760;DHT22;69248;42.138;24.742;2023-04-24T03:14:17;11.40;68.00
79760;DHT22;69248;42.138;24.742;2023-04-24T03:16:44;11.30;67.90
79760;DHT22;69248;42.138;24.742;2023-04-24T03:19:12;11.30;67.90
79760;DHT22;69248;42.138;24.742;2023-04-24T03:21:39;11.30;67.90
79760;DHT22;69248;42.138;24.742;2023-04-24T03:24:08;11.30;68.00
79760;DHT22;69248;42.138;24.742;2023-04-24T03:26:36;11.20;68.10
79760;DHT22;69248;42.138;24.742;2023-04-24T03:29:03;11.30;68.00
79760;DHT22;69248;42.138;24.742;2023-04-24T03:31:31;11.30;68.00
79760;DHT22;69248;42.138;24.742;2023-04-24T03:33:59;11.20;68.00
79760;DHT22;69248;42.138;24.742;2023-04-24T03:36:26;11.30;67.60
79760;DHT22;69248;42.138;24.742;2023-04-24T03:38:54;11.20;67.70
79760;DHT22;69248;42.138;24.742;2023-04-24T03:41:21;11.20;68.20
79760;DHT22;69248;42.138;24.742;2023-04-24T03:43:49;11.20;68.30
79760;DHT22;69248;42.138;24.742;2023-04-24T03:46:16;11.20;68.30
79760;DHT22;69248;42.138;24.742;2023-04-24T03:48:44;11.20;68.30
79760;DHT22;69248;42.138;24.742;2023-04-24T03:51:11;11.30;68.10
79760;DHT22;69248;42.138;24.742;2023-04-24T03:53:39;11.30;67.80
79760;DHT22;69248;42.138;24.742;2023-04-24T03:56:06;11.40;67.40
79760;DHT22;69248;42.138;24.742;2023-04-24T03:58:34;11.50;67.10
79760;DHT22;69248;42.138;24.742;2023-04-24T04:01:01;11.50;66.90
79760;DHT22;69248;42.138;24.742;2023-04-24T04:03:29;11.60;66.70
79760;DHT22;69248;42.138;24.742;2023-04-24T04:05:56;11.60;66.40
79760;DHT22;69248;42.138;24.742;2023-04-24T04:08:24;11.70;66.20
79760;DHT22;69248;42.138;24.742;2023-04-24T04:10:52;11.70;66.10
79760;DHT22;69248;42.138;24.742;2023-04-24T04:13:19;11.80;65.90
79760;DHT22;69248;42.138;24.742;2023-04-24T04:15:47;12.00;65.90
79760;DHT22;69248;42.138;24.742;2023-04-24T04:18:15;12.10;65.70
79760;DHT22;69248;42.138;24.742;2023-04-24T04:20:42;12.10;65.10
79760;DHT22;69248;42.138;24.742;2023-04-24T04:23:10;12.20;64.70
79760;DHT22;69248;42.138;24.742;2023-04-24T04:25:37;12.30;63.90
79760;DHT22;69248;42.138;24.742;2023-04-24T04:28:05;12.20;63.90
79760;DHT22;69248;42.138;24.742;2023-04-24T04:30:32;12.10;64.00
79760;DHT22;69248;42.138;24.742;2023-04-24T04:33:00;12.10;64.40
79760;DHT22;69248;42.138;24.742;2023-04-24T04:35:27;12.20;64.10
79760;DHT22;69248;42.138;24.742;2023-04-24T04:37:55;12.20;64.00
79760;DHT22;69248;42.138;24.742;2023-04-24T04:40:24;12.20;63.90
79760;DHT22;69248;42.138;24.742;2023-04-24T04:42:52;12.30;63.80
79760;DHT22;69248;42.138;24.742;2023-04-24T04:45:20;12.30;63.50
79760;DHT22;69248;42.138;24.742;2023-04-24T04:47:48;12.40;63.20
79760;DHT22;69248;42.138;24.742;2023-04-24T04:50:15;12.50;62.80
79760;DHT22;69248;42.138;24.742;2023-04-24T04:52:45;12.60;62.20
79760;DHT22;69248;42.138;24.742;2023-04-24T04:55:12;12.50;61.90
79760;DHT22;69248;42.138;24.742;2023-04-24T04:57:40;12.60;61.70
79760;DHT22;69248;42.138;24.742;2023-04-24T05:00:08;12.70;61.20
79760;DHT22;69248;42.138;24.742;2023-04-24T05:02:37;12.90;60.80
79760;DHT22;69248;42.138;24.742;2023-04-24T05:05:06;13.00;60.60
79760;DHT22;69248;42.138;24.742;2023-04-24T05:07:33;13.10;60.40
79760;DHT22;69248;42.138;24.742;2023-04-24T05:10:01;13.20;60.00
79760;DHT22;69248;42.138;24.742;2023-04-24T05:12:29;13.40;59.60
79760;DHT22;69248;42.138;24.742;2023-04-24T05:14:56;13.60;59.30
79760;DHT22;69248;42.138;24.742;2023-04-24T05:17:24;13.80;58.90
79760;DHT22;69248;42.138;24.742;2023-04-24T05:19:52;14.00;58.20
79760;DHT22;69248;42.138;24.742;2023-04-24T05:22:19;14.30;57.60
79760;DHT22;69248;42.138;24.742;2023-04-24T05:24:47;14.60;57.00
79760;DHT22;69248;42.138;24.742;2023-04-24T05:27:15;14.70;56.00
79760;DHT22;69248;42.138;24.742;2023-04-24T05:29:43;14.90;55.60
79760;DHT22;69248;42.138;24.742;2023-04-24T05:32:11;15.00;55.10
79760;DHT22;69248;42.138;24.742;2023-04-24T05:34:38;15.20;55.00
79760;DHT22;69248;42.138;24.742;2023-04-24T05:37:06;15.30;54.20
79760;DHT22;69248;42.138;24.742;2023-04-24T05:39:35;15.50;54.00
79760;DHT22;69248;42.138;24.742;2023-04-24T05:42:03;15.60;53.60
79760;DHT22;69248;42.138;24.742;2023-04-24T05:44:31;15.70;53.70
79760;DHT22;69248;42.138;24.742;2023-04-24T05:46:59;15.80;53.60
79760;DHT22;69248;42.138;24.742;2023-04-24T05:49:27;15.80;53.60
79760;DHT22;69248;42.138;24.742;2023-04-24T05:51:54;15.90;53.30
79760;DHT22;69248;42.138;24.742;2023-04-24T05:54:22;15.90;53.20
79760;DHT22;69248;42.138;24.742;2023-04-24T05:56:50;16.00;52.80
79760;DHT22;69248;42.138;24.742;2023-04-24T05:59:17;16.10;52.70
79760;DHT22;69248;42.138;24.742;2023-04-24T06:01:45;16.10;52.50
79760;DHT22;69248;42.138;24.742;2023-04-24T06:04:13;15.90;52.90
79760;DHT22;69248;42.138;24.742;2023-04-24T06:06:43;15.80;53.40
79760;DHT22;69248;42.138;24.742;2023-04-24T06:09:10;15.70;53.60
79760;DHT22;69248;42.138;24.742;2023-04-24T06:11:38;15.50;53.80
79760;DHT22;69248;42.138;24.742;2023-04-24T06:14:05;15.40;54.00
79760;DHT22;69248;42.138;24.742;2023-04-24T06:16:33;15.30;54.60
79760;DHT22;69248;42.138;24.742;2023-04-24T06:19:01;15.30;54.60
79760;DHT22;69248;42.138;24.742;2023-04-24T06:21:28;15.30;54.80
79760;DHT22;69248;42.138;24.742;2023-04-24T06:23:56;15.40;54.40
79760;DHT22;69248;42.138;24.742;2023-04-24T06:26:24;15.50;54.30
79760;DHT22;69248;42.138;24.742;2023-04-24T06:28:53;15.60;54.10
79760;DHT22;69248;42.138;24.742;2023-04-24T06:31:26;15.80;54.00
79760;DHT22;69248;42.138;24.742;2023-04-24T06:33:54;16.00;54.00
79760;DHT22;69248;42.138;24.742;2023-04-24T06:36:21;16.10;53.50
79760;DHT22;69248;42.138;24.742;2023-04-24T06:38:50;16.20;53.50
79760;DHT22;69248;42.138;24.742;2023-04-24T06:41:22;16.30;53.00
79760;DHT22;69248;42.138;24.742;2023-04-24T06:43:47;16.40;52.70
79760;DHT22;69248;42.138;24.742;2023-04-24T06:46:15;16.40;53.00
79760;DHT22;69248;42.138;24.742;2023-04-24T06:48:43;16.40;53.30
79760;DHT22;69248;42.138;24.742;2023-04-24T06:51:10;16.50;53.10
79760;DHT22;69248;42.138;24.742;2023-04-24T06:53:38;16.80;52.90
79760;DHT22;69248;42.138;24.742;2023-04-24T06:56:05;17.00;52.30
79760;DHT22;69248;42.138;24.742;2023-04-24T06:58:33;17.20;51.70
79760;DHT22;69248;42.138;24.742;2023-04-24T07:01:00;17.20;51.40
79760;DHT22;69248;42.138;24.742;2023-04-24T07:03:28;17.30;51.40
79760;DHT22;69248;42.138;24.742;2023-04-24T07:06:00;17.30;51.20
79760;DHT22;69248;42.138;24.742;2023-04-24T07:08:27;17.30;51.20
79760;DHT22;69248;42.138;24.742;2023-04-24T07:10:57;17.40;50.70
79760;DHT22;69248;42.138;24.742;2023-04-24T07:13:25;17.40;50.60
79760;DHT22;69248;42.138;24.742;2023-04-24T07:15:54;17.40;50.80
79760;DHT22;69248;42.138;24.742;2023-04-24T07:18:22;17.40;50.70
79760;DHT22;69248;42.138;24.742;2023-04-24T07:20:50;17.30;50.80
79760;DHT22;69248;42.138;24.742;2023-04-24T07:23:19;17.50;51.00
79760;DHT22;69248;42.138;24.742;2023-04-24T07:25:47;17.60;50.50
79760;DHT22;69248;42.138;24.742;2023-04-24T07:28:14;17.80;50.40
79760;DHT22;69248;42.138;24.742;2023-04-24T07:30:44;18.20;49.30
79760;DHT22;69248;42.138;24.742;2023-04-24T07:33:14;18.40;48.80
79760;DHT22;69248;42.138;24.742;2023-04-24T07:35:42;18.50;47.80
79760;DHT22;69248;42.138;24.742;2023-04-24T07:38:10;18.60;47.90
79760;DHT22;69248;42.138;24.742;2023-04-24T07:40:37;18.40;47.30
79760;DHT22;69248;42.138;24.742;2023-04-24T07:43:05;18.10;48.10
79760;DHT22;69248;42.138;24.742;2023-04-24T07:45:33;18.10;48.80
79760;DHT22;69248;42.138;24.742;2023-04-24T07:48:02;18.20;49.10
79760;DHT22;69248;42.138;24.742;2023-04-24T07:50:30;18.40;48.50
79760;DHT22;69248;42.138;24.742;2023-04-24T07:52:58;18.60;47.90
79760;DHT22;69248;42.138;24.742;2023-04-24T07:55:25;18.90;46.70
79760;DHT22;69248;42.138;24.742;2023-04-24T07:57:53;19.20;45.90
79760;DHT22;69248;42.138;24.742;2023-04-24T08:00:20;19.50;45.40
79760;DHT22;69248;42.138;24.742;2023-04-24T08:02:48;19.70;44.70
79760;DHT22;69248;42.138;24.742;2023-04-24T08:05:16;19.90;44.30
79760;DHT22;69248;42.138;24.742;2023-04-24T08:07:44;20.00;43.50
79760;DHT22;69248;42.138;24.742;2023-04-24T08:10:14;20.20;43.40
79760;DHT22;69248;42.138;24.742;2023-04-24T08:12:41;20.20;43.60
79760;DHT22;69248;42.138;24.742;2023-04-24T08:15:09;20.20;42.80
79760;DHT22;69248;42.138;24.742;2023-04-24T08:17:37;20.10;43.30
79760;DHT22;69248;42.138;24.742;2023-04-24T08:20:05;19.90;43.10
79760;DHT22;69248;42.138;24.742;2023-04-24T08:22:35;19.60;43.90
79760;DHT22;69248;42.138;24.742;2023-04-24T08:25:04;19.30;44.90
79760;DHT22;69248;42.138;24.742;2023-04-24T08:27:41;19.10;45.40
79760;DHT22;69248;42.138;24.742;2023-04-24T08:30:11;19.10;45.90
79760;DHT22;69248;42.138;24.742;2023-04-24T08:32:38;19.20;45.90
79760;DHT22;69248;42.138;24.742;2023-04-24T08:35:06;19.20;45.80
79760;DHT22;69248;42.138;24.742;2023-04-24T08:37:35;19.30;45.30
79760;DHT22;69248;42.138;24.742;2023-04-24T08:40:12;19.50;45.10
79760;DHT22;69248;42.138;24.742;2023-04-24T08:42:43;19.60;44.80
79760;DHT22;69248;42.138;24.742;2023-04-24T08:45:12;19.80;44.20
79760;DHT22;69248;42.138;24.742;2023-04-24T08:47:41;19.80;44.40
79760;DHT22;69248;42.138;24.742;2023-04-24T08:50:09;20.00;44.10
79760;DHT22;69248;42.138;24.742;2023-04-24T08:52:37;20.00;44.30
79760;DHT22;69248;42.138;24.742;2023-04-24T08:55:06;20.30;43.60
79760;DHT22;69248;42.138;24.742;2023-04-24T08:57:33;20.70;43.20
79760;DHT22;69248;42.138;24.742;2023-04-24T09:00:02;20.90;42.50
79760;DHT22;69248;42.138;24.742;2023-04-24T09:02:31;20.80;41.50
79760;DHT22;69248;42.138;24.742;2023-04-24T09:05:02;20.70;42.10
79760;DHT22;69248;42.138;24.742;2023-04-24T09:07:31;20.50;42.80
79760;DHT22;69248;42.138;24.742;2023-04-24T09:10:02;20.50;42.10
79760;DHT22;69248;42.138;24.742;2023-04-24T09:12:30;20.60;42.50
79760;DHT22;69248;42.138;24.742;2023-04-24T09:14:57;20.70;42.50
79760;DHT22;69248;42.138;24.742;2023-04-24T09:17:25;20.80;42.30
79760;DHT22;69248;42.138;24.742;2023-04-24T09:19:55;21.00;41.90
79760;DHT22;69248;42.138;24.742;2023-04-24T09:22:23;21.00;40.80
79760;DHT22;69248;42.138;24.742;2023-04-24T09:25:04;21.00;41.20
79760;DHT22;69248;42.138;24.742;2023-04-24T09:27:36;21.00;41.50
79760;DHT22;69248;42.138;24.742;2023-04-24T09:30:04;21.00;41.80
79760;DHT22;69248;42.138;24.742;2023-04-24T09:32:31;21.20;41.80
79760;DHT22;69248;42.138;24.742;2023-04-24T09:37:46;21.40;40.90
79760;DHT22;69248;42.138;24.742;2023-04-24T09:40:20;21.50;40.90
79760;DHT22;69248;42.138;24.742;2023-04-24T09:42:55;21.20;40.00
79760;DHT22;69248;42.138;24.742;2023-04-24T09:45:37;21.30;40.60
79760;DHT22;69248;42.138;24.742;2023-04-24T09:48:05;21.30;42.10
79760;DHT22;69248;42.138;24.742;2023-04-24T09:50:36;21.40;42.60
79760;DHT22;69248;42.138;24.742;2023-04-24T09:53:05;21.60;42.20
79760;DHT22;69248;42.138;24.742;2023-04-24T09:55:39;21.70;42.20
79760;DHT22;69248;42.138;24.742;2023-04-24T09:58:08;21.70;42.60
79760;DHT22;69248;42.138;24.742;2023-04-24T10:00:37;21.80;43.40
79760;DHT22;69248;42.138;24.742;2023-04-24T10:03:05;21.90;42.10
79760;DHT22;69248;42.138;24.742;2023-04-24T10:05:35;22.10;42.00
79760;DHT22;69248;42.138;24.742;2023-04-24T10:08:05;22.10;39.30
79760;DHT22;69248;42.138;24.742;2023-04-24T10:10:35;22.10;39.90
79760;DHT22;69248;42.138;24.742;2023-04-24T10:13:04;22.00;40.20
79760;DHT22;69248;42.138;24.742;2023-04-24T10:15:33;21.90;41.40
79760;DHT22;69248;42.138;24.742;2023-04-24T10:18:02;22.00;41.50
79760;DHT22;69248;42.138;24.742;2023-04-24T10:20:35;22.10;40.80
79760;DHT22;69248;42.138;24.742;2023-04-24T10:23:03;22.00;40.70
79760;DHT22;69248;42.138;24.742;2023-04-24T10:25:33;22.00;41.20
79760;DHT22;69248;42.138;24.742;2023-04-24T10:28:01;22.10;40.90
79760;DHT22;69248;42.138;24.742;2023-04-24T10:30:33;22.30;40.80
79760;DHT22;69248;42.138;24.742;2023-04-24T10:33:06;22.40;40.60
79760;DHT22;69248;42.138;24.742;2023-04-24T10:35:42;22.40;40.50
79760;DHT22;69248;42.138;24.742;2023-04-24T10:38:17;22.50;40.30
79760;DHT22;69248;42.138;24.742;2023-04-24T10:40:46;22.60;40.70
79760;DHT22;69248;42.138;24.742;2023-04-24T10:43:16;22.80;40.50
79760;DHT22;69248;42.138;24.742;2023-04-24T10:46:04;23.10;39.40
79760;DHT22;69248;42.138;24.742;2023-04-24T10:48:32;23.30;39.10
79760;DHT22;69248;42.138;24.742;2023-04-24T10:51:00;23.30;39.40
79760;DHT22;69248;42.138;24.742;2023-04-24T10:53:29;23.20;39.40
79760;DHT22;69248;42.138;24.742;2023-04-24T10:56:02;23.30;39.60
79760;DHT22;69248;42.138;24.742;2023-04-24T10:58:45;23.50;39.30
79760;DHT22;69248;42.138;24.742;2023-04-24T11:01:30;23.60;38.30
79760;DHT22;69248;42.138;24.742;2023-04-24T11:04:02;23.60;38.80
79760;DHT22;69248;42.138;24.742;2023-04-24T11:06:34;23.70;39.00
79760;DHT22;69248;42.138;24.742;2023-04-24T11:09:07;23.90;39.00
79760;DHT22;69248;42.138;24.742;2023-04-24T11:11:36;23.90;38.40
79760;DHT22;69248;42.138;24.742;2023-04-24T11:14:05;23.90;38.20
79760;DHT22;69248;42.138;24.742;2023-04-24T11:19:18;24.60;37.30
79760;DHT22;69248;42.138;24.742;2023-04-24T11:22:02;25.00;36.80
79760;DHT22;69248;42.138;24.742;2023-04-24T11:24:38;25.30;35.80
79760;DHT22;69248;42.138;24.742;2023-04-24T11:27:18;25.70;35.30
79760;DHT22;69248;42.138;24.742;2023-04-24T11:35:14;26.50;33.40
79760;DHT22;69248;42.138;24.742;2023-04-24T11:37:47;26.70;34.00
79760;DHT22;69248;42.138;24.742;2023-04-24T11:40:19;26.80;33.00
79760;DHT22;69248;42.138;24.742;2023-04-24T11:42:47;26.60;33.40
79760;DHT22;69248;42.138;24.742;2023-04-24T11:45:17;26.50;33.80
79760;DHT22;69248;42.138;24.742;2023-04-24T11:47:47;26.50;33.90
79760;DHT22;69248;42.138;24.742;2023-04-24T11:50:16;26.60;34.30
79760;DHT22;69248;42.138;24.742;2023-04-24T11:52:46;26.90;33.50
79760;DHT22;69248;42.138;24.742;2023-04-24T11:57:54;27.40;32.70
79760;DHT22;69248;42.138;24.742;2023-04-24T12:00:26;27.60;32.40
79760;DHT22;69248;42.138;24.742;2023-04-24T12:03:04;27.80;32.00
79760;DHT22;69248;42.138;24.742;2023-04-24T12:05:33;28.10;31.90
79760;DHT22;69248;42.138;24.742;2023-04-24T12:08:01;28.50;31.50
79760;DHT22;69248;42.138;24.742;2023-04-24T12:10:30;28.90;30.40
79760;DHT22;69248;42.138;24.742;2023-04-24T12:12:59;29.30;29.80
79760;DHT22;69248;42.138;24.742;2023-04-24T12:15:27;29.80;30.00
79760;DHT22;69248;42.138;24.742;2023-04-24T12:17:55;30.30;29.20
79760;DHT22;69248;42.138;24.742;2023-04-24T12:20:29;30.60;28.50
79760;DHT22;69248;42.138;24.742;2023-04-24T12:22:58;31.20;28.40
79760;DHT22;69248;42.138;24.742;2023-04-24T12:25:28;31.70;27.90
79760;DHT22;69248;42.138;24.742;2023-04-24T12:30:46;32.10;27.30
79760;DHT22;69248;42.138;24.742;2023-04-24T12:33:21;32.10;27.20
79760;DHT22;69248;42.138;24.742;2023-04-24T12:35:51;31.80;27.10
79760;DHT22;69248;42.138;24.742;2023-04-24T12:38:25;31.60;27.40
79760;DHT22;69248;42.138;24.742;2023-04-24T12:41:06;31.50;27.40
79760;DHT22;69248;42.138;24.742;2023-04-24T12:43:34;31.60;26.50
79760;DHT22;69248;42.138;24.742;2023-04-24T12:46:02;31.60;26.00
79760;DHT22;69248;42.138;24.742;2023-04-24T12:48:30;31.80;26.70
79760;DHT22;69248;42.138;24.742;2023-04-24T12:50:59;32.10;26.80
79760;DHT22;69248;42.138;24.742;2023-04-24T12:53:30;32.70;26.20
79760;DHT22;69248;42.138;24.742;2023-04-24T12:55:57;33.70;25.10
79760;DHT22;69248;42.138;24.742;2023-04-24T12:58:26;34.80;23.60
79760;DHT22;69248;42.138;24.742;2023-04-24T13:00:53;36.90;22.10
79760;DHT22;69248;42.138;24.742;2023-04-24T13:03:21;38.80;19.50
79760;DHT22;69248;42.138;24.742;2023-04-24T13:05:49;40.80;18.00
79760;DHT22;69248;42.138;24.742;2023-04-24T13:08:16;42.30;16.90
79760;DHT22;69248;42.138;24.742;2023-04-24T13:10:44;43.10;16.30
79760;DHT22;69248;42.138;24.742;2023-04-24T13:13:11;44.00;15.80
79760;DHT22;69248;42.138;24.742;2023-04-24T13:15:39;45.10;14.90
79760;DHT22;69248;42.138;24.742;2023-04-24T13:18:07;46.20;14.70
79760;DHT22;69248;42.138;24.742;2023-04-24T13:20:34;47.30;13.70
79760;DHT22;69248;42.138;24.742;2023-04-24T13:23:02;48.20;13.20
79760;DHT22;69248;42.138;24.742;2023-04-24T13:25:35;49.00;12.70
79760;DHT22;69248;42.138;24.742;2023-04-24T13:27:59;49.50;12.10
79760;DHT22;69248;42.138;24.742;2023-04-24T13:30:27;49.50;11.80
79760;DHT22;69248;42.138;24.742;2023-04-24T13:32:55;48.80;12.10
79760;DHT22;69248;42.138;24.742;2023-04-24T13:35:24;48.20;12.50
79760;DHT22;69248;42.138;24.742;2023-04-24T13:37:51;47.90;12.90
79760;DHT22;69248;42.138;24.742;2023-04-24T13:40:19;47.90;12.90
79760;DHT22;69248;42.138;24.742;2023-04-24T13:42:46;48.00;12.90
79760;DHT22;69248;42.138;24.742;2023-04-24T13:45:14;47.30;13.10
79760;DHT22;69248;42.138;24.742;2023-04-24T13:47:41;45.90;13.60
79760;DHT22;69248;42.138;24.742;2023-04-24T13:50:09;44.90;14.40
79760;DHT22;69248;42.138;24.742;2023-04-24T13:52:37;43.70;14.70
79760;DHT22;69248;42.138;24.742;2023-04-24T13:55:05;42.10;15.90
79760;DHT22;69248;42.138;24.742;2023-04-24T13:57:33;40.60;16.90
79760;DHT22;69248;42.138;24.742;2023-04-24T14:00:01;39.70;18.00
79760;DHT22;69248;42.138;24.742;2023-04-24T14:02:30;39.70;18.10
79760;DHT22;69248;42.138;24.742;2023-04-24T14:04:58;40.50;17.10
79760;DHT22;69248;42.138;24.742;2023-04-24T14:07:25;41.20;16.80
79760;DHT22;69248;42.138;24.742;2023-04-24T14:09:53;41.30;16.90
79760;DHT22;69248;42.138;24.742;2023-04-24T14:12:21;40.50;17.30
79760;DHT22;69248;42.138;24.742;2023-04-24T14:14:48;39.30;17.90
79760;DHT22;69248;42.138;24.742;2023-04-24T14:17:16;38.20;18.90
79760;DHT22;69248;42.138;24.742;2023-04-24T14:19:43;37.00;19.90
79760;DHT22;69248;42.138;24.742;2023-04-24T14:22:11;36.20;20.90
79760;DHT22;69248;42.138;24.742;2023-04-24T14:24:38;35.60;21.70
79760;DHT22;69248;42.138;24.742;2023-04-24T14:27:06;35.30;21.80
79760;DHT22;69248;42.138;24.742;2023-04-24T14:29:33;35.20;21.80
79760;DHT22;69248;42.138;24.742;2023-04-24T14:32:01;35.00;21.90
79760;DHT22;69248;42.138;24.742;2023-04-24T14:34:29;34.80;22.10
79760;DHT22;69248;42.138;24.742;2023-04-24T14:36:56;34.50;22.50
79760;DHT22;69248;42.138;24.742;2023-04-24T14:39:25;34.20;22.80
79760;DHT22;69248;42.138;24.742;2023-04-24T14:41:52;33.70;23.20
79760;DHT22;69248;42.138;24.742;2023-04-24T14:44:20;33.30;23.50
79760;DHT22;69248;42.138;24.742;2023-04-24T14:46:48;32.80;23.90
79760;DHT22;69248;42.138;24.742;2023-04-24T14:49:16;32.20;24.70
79760;DHT22;69248;42.138;24.742;2023-04-24T14:51:44;31.60;25.00
79760;DHT22;69248;42.138;24.742;2023-04-24T14:54:11;31.20;25.00
79760;DHT22;69248;42.138;24.742;2023-04-24T14:56:39;30.90;25.50
79760;DHT22;69248;42.138;24.742;2023-04-24T14:59:07;30.60;25.70
79760;DHT22;69248;42.138;24.742;2023-04-24T15:01:35;30.30;25.90
79760;DHT22;69248;42.138;24.742;2023-04-24T15:04:02;30.20;26.40
79760;DHT22;69248;42.138;24.742;2023-04-24T15:06:30;30.00;26.40
79760;DHT22;69248;42.138;24.742;2023-04-24T15:08:58;29.80;26.70
79760;DHT22;69248;42.138;24.742;2023-04-24T15:11:26;29.70;26.90
79760;DHT22;69248;42.138;24.742;2023-04-24T15:13:54;29.50;27.20
79760;DHT22;69248;42.138;24.742;2023-04-24T15:16:23;29.30;27.30
79760;DHT22;69248;42.138;24.742;2023-04-24T15:18:51;29.40;26.90
79760;DHT22;69248;42.138;24.742;2023-04-24T15:21:18;30.00;26.70
79760;DHT22;69248;42.138;24.742;2023-04-24T15:23:46;30.70;25.60
79760;DHT22;69248;42.138;24.742;2023-04-24T15:26:14;31.10;25.40
79760;DHT22;69248;42.138;24.742;2023-04-24T15:28:41;31.50;24.90
79760;DHT22;69248;42.138;24.742;2023-04-24T15:31:09;32.30;24.10
79760;DHT22;69248;42.138;24.742;2023-04-24T15:33:37;33.00;23.20
79760;DHT22;69248;42.138;24.742;2023-04-24T15:36:04;32.80;23.20
79760;DHT22;69248;42.138;24.742;2023-04-24T15:38:32;32.30;23.70
79760;DHT22;69248;42.138;24.742;2023-04-24T15:40:59;31.70;24.20